Terminal Aerodrome Forecast
Issued by NWS Cleveland, OH

Home | Current Version | Previous Version | Text Only | Print | Product List | Glossary Off
Versions: 1 2 3 4 5 6 7 8 9 10 11 12 13 14 15 16 17 18 19 20 21 22 23 24 25

446
FTUS41 KCLE 110340 AAA
TAFERI
TAF AMD
KERI 110340Z 1104/1124 30015G24KT 6SM -SHSN SCT025 BKN040
      TEMPO 1104/1106 1 1/2SM -SHSN BKN025
     FM111000 29012G20KT 3SM -SHSN OVC025
      TEMPO 1111/1115 3/4SM -SHSN OVC015
     FM111800 28012G20KT 6SM -SHSN OVC025=

USA.gov is the U.S. government's official web portal to all federal, state and local government web resources and services.